Time;durP1;ratioP1;P1;durP2;ratioP2;P2;SDS_P1;SDS_P2;PMS_P1;PMS_P2;Temp;Humidity;BMP_temperature;BMP_pressure;BME280_temperature;BME280_humidity;BME280_pressure;Samples;Min_cycle;Max_cycle;Signal;HPM_P1;HPM_P2
2023/08/28 00:00:29;;;;;;;3.53;2.13;;;22.00;83.80;;;;;;4950004;28;20535;-71
2023/08/28 00:02:55;;;;;;;1.97;1.87;;;22.00;83.80;;;;;;4982597;28;20531;-71
2023/08/28 00:05:23;;;;;;;2.03;1.83;;;22.00;83.80;;;;;;4966269;28;20449;-70
2023/08/28 00:07:52;;;;;;;2.50;2.10;;;22.00;83.80;;;;;;4982307;28;20439;-71
2023/08/28 00:10:18;;;;;;;2.13;2.03;;;22.00;83.80;;;;;;4956487;28;21148;-71
2023/08/28 00:12:47;;;;;;;2.20;2.10;;;22.00;83.80;;;;;;4962653;28;20413;-71
2023/08/28 00:15:13;;;;;;;2.17;1.97;;;21.90;83.80;;;;;;4931375;28;20640;-71
2023/08/28 00:17:39;;;;;;;2.23;2.13;;;21.90;83.80;;;;;;4981065;28;20433;-71
2023/08/28 00:20:08;;;;;;;2.13;1.93;;;21.90;83.70;;;;;;4972266;28;20432;-71
2023/08/28 00:22:37;;;;;;;2.13;1.63;;;21.90;83.70;;;;;;4967311;28;20441;-71
2023/08/28 00:25:04;;;;;;;4.07;2.00;;;21.90;83.80;;;;;;4965486;28;20480;-71
2023/08/28 00:27:33;;;;;;;2.47;1.90;;;21.90;83.80;;;;;;4965230;28;20467;-71
2023/08/28 00:29:59;;;;;;;2.27;2.10;;;21.90;83.80;;;;;;4981487;28;20575;-71
2023/08/28 00:32:26;;;;;;;2.17;2.07;;;21.80;83.70;;;;;;4981885;28;20838;-71
2023/08/28 00:34:53;;;;;;;2.10;2.00;;;21.80;83.70;;;;;;4981077;28;20542;-71
2023/08/28 00:37:19;;;;;;;2.20;2.10;;;21.80;83.80;;;;;;4965443;28;20489;-71
2023/08/28 00:39:45;;;;;;;2.50;2.30;;;21.80;83.70;;;;;;4972857;28;20422;-71
2023/08/28 00:42:14;;;;;;;4.57;2.23;;;21.80;83.60;;;;;;4962702;28;21340;-71
2023/08/28 00:44:40;;;;;;;3.20;2.10;;;21.80;83.70;;;;;;4962413;28;20446;-71
2023/08/28 00:47:10;;;;;;;4.43;2.50;;;21.80;84.40;;;;;;4962277;28;20417;-71
2023/08/28 00:49:36;;;;;;;2.40;2.30;;;21.80;83.60;;;;;;4962416;28;20493;-71
2023/08/28 00:52:05;;;;;;;1.70;1.60;;;21.70;83.50;;;;;;4972567;28;20541;-70
2023/08/28 00:54:32;;;;;;;2.50;2.30;;;21.70;83.50;;;;;;4985020;28;20408;-71
2023/08/28 00:56:59;;;;;;;2.10;2.00;;;21.70;83.50;;;;;;4968804;28;20440;-70
2023/08/28 00:59:28;;;;;;;2.30;2.10;;;21.70;83.50;;;;;;4952691;28;20455;-71
2023/08/28 01:01:56;;;;;;;2.10;1.90;;;21.70;83.50;;;;;;4953104;28;20429;-71
2023/08/28 01:04:24;;;;;;;3.83;2.40;;;21.70;83.40;;;;;;4952690;28;20429;-71
2023/08/28 01:07:17;;;;;;;3.30;2.10;;;21.60;83.30;;;;;;4968677;28;20456;-71
2023/08/28 01:10:00;;;;;;;2.50;2.30;;;21.60;83.30;;;;;;4986826;28;20420;-71
2023/08/28 01:12:37;;;;;;;2.30;2.20;;;21.60;83.30;;;;;;4986354;28;20930;-71
2023/08/28 01:15:20;;;;;;;2.67;2.27;;;21.60;83.30;;;;;;4968960;28;20441;-71
2023/08/28 01:17:54;;;;;;;2.30;2.20;;;21.60;83.40;;;;;;4949540;28;20410;-71
2023/08/28 01:20:22;;;;;;;2.50;2.30;;;21.60;83.40;;;;;;4948491;28;20508;-71
2023/08/28 01:22:57;;;;;;;2.17;1.97;;;21.60;83.30;;;;;;4952488;28;20445;-71
2023/08/28 01:25:28;;;;;;;2.33;2.00;;;21.60;83.40;;;;;;4984713;28;20471;-71
2023/08/28 01:27:58;;;;;;;2.03;1.93;;;21.50;83.20;;;;;;4968694;28;21308;-71
2023/08/28 01:30:25;;;;;;;2.17;2.00;;;21.50;83.20;;;;;;4970234;28;20457;-71
2023/08/28 01:32:51;;;;;;;2.43;2.17;;;21.50;83.20;;;;;;4964930;28;20453;-71
2023/08/28 01:35:26;;;;;;;2.10;1.97;;;21.50;83.20;;;;;;4975531;28;20460;-71
2023/08/28 01:38:07;;;;;;;3.00;2.07;;;21.50;83.30;;;;;;4984420;28;20434;-71
2023/08/28 01:40:40;;;;;;;2.20;2.00;;;21.50;83.30;;;;;;4984148;28;20450;-71
2023/08/28 01:43:10;;;;;;;3.07;2.07;;;21.50;83.20;;;;;;4968371;28;20452;-71
2023/08/28 01:45:40;;;;;;;2.23;2.13;;;21.40;83.10;;;;;;4966158;28;20472;-71
2023/08/28 01:48:06;;;;;;;2.30;2.10;;;21.40;83.10;;;;;;4968675;28;20444;-71
2023/08/28 01:50:32;;;;;;;2.30;2.20;;;21.40;83.20;;;;;;4968193;28;20894;-71
2023/08/28 01:52:58;;;;;;;2.50;2.30;;;21.40;83.20;;;;;;4967998;28;20456;-71
2023/08/28 01:55:45;;;;;;;5.27;2.20;;;21.40;83.20;;;;;;4983418;28;20457;-71
2023/08/28 01:58:13;;;;;;;2.40;1.90;;;21.40;83.20;;;;;;4957453;28;20810;-71
2023/08/28 02:00:41;;;;;;;2.30;2.20;;;21.40;83.20;;;;;;4967739;28;20436;-70
2023/08/28 02:03:09;;;;;;;2.47;2.27;;;21.30;83.10;;;;;;4966839;28;20427;-71
2023/08/28 02:05:38;;;;;;;2.10;2.00;;;21.30;83.10;;;;;;4964317;28;20462;-71
2023/08/28 02:08:05;;;;;;;2.50;2.27;;;21.30;83.10;;;;;;4932430;28;20833;-71
2023/08/28 02:10:31;;;;;;;2.90;2.33;;;21.30;83.20;;;;;;4948666;28;20210;-71
2023/08/28 02:12:58;;;;;;;2.97;2.77;;;21.30;83.20;;;;;;4965002;28;20509;-71
2023/08/28 02:15:25;;;;;;;2.37;2.17;;;21.30;83.20;;;;;;4948647;28;20442;-71
2023/08/28 02:17:50;;;;;;;3.00;2.17;;;21.30;83.20;;;;;;4948869;28;20437;-70
2023/08/28 02:20:17;;;;;;;6.00;2.40;;;21.30;83.20;;;;;;4948388;28;20773;-71
2023/08/28 02:22:43;;;;;;;1.93;1.83;;;21.20;83.00;;;;;;4962702;28;20204;-71
2023/08/28 02:25:09;;;;;;;2.70;2.60;;;21.20;83.10;;;;;;4983764;28;20863;-70
2023/08/28 02:27:35;;;;;;;5.63;2.70;;;21.20;83.00;;;;;;4985212;28;20424;-71
2023/08/28 02:30:01;;;;;;;2.93;2.70;;;21.20;83.00;;;;;;4967707;28;20600;-71
2023/08/28 02:32:29;;;;;;;2.50;2.30;;;21.20;83.10;;;;;;4981584;28;20442;-71
2023/08/28 02:34:55;;;;;;;2.97;2.77;;;21.20;83.00;;;;;;4983357;28;20463;-71
2023/08/28 02:37:23;;;;;;;2.83;2.23;;;21.20;83.10;;;;;;4983717;28;20432;-71
2023/08/28 02:39:49;;;;;;;3.37;2.10;;;21.20;83.00;;;;;;4983940;28;20881;-71
2023/08/28 02:42:15;;;;;;;2.53;2.20;;;21.20;83.10;;;;;;4967721;28;20417;-70
2023/08/28 02:44:44;;;;;;;3.40;2.30;;;21.10;83.00;;;;;;4983008;28;20205;-71
2023/08/28 02:47:10;;;;;;;4.03;2.57;;;21.10;83.00;;;;;;4967326;28;20435;-70
2023/08/28 02:49:36;;;;;;;2.53;2.33;;;21.10;83.10;;;;;;4965862;28;20468;-71
2023/08/28 02:52:02;;;;;;;2.70;2.50;;;21.10;83.00;;;;;;4982112;28;20469;-71
2023/08/28 02:54:28;;;;;;;2.23;2.13;;;21.10;83.10;;;;;;4963728;28;20425;-71
2023/08/28 02:56:54;;;;;;;4.50;2.60;;;21.10;83.00;;;;;;4963653;28;20469;-71
2023/08/28 02:59:20;;;;;;;2.50;2.30;;;21.10;83.00;;;;;;4963730;28;20435;-71
2023/08/28 03:01:49;;;;;;;3.30;3.00;;;21.10;83.10;;;;;;4968658;28;20452;-71
2023/08/28 03:04:14;;;;;;;2.93;2.63;;;21.00;83.00;;;;;;4983496;28;20564;-71
2023/08/28 03:06:41;;;;;;;3.30;3.10;;;21.00;83.10;;;;;;4967318;28;20455;-71
2023/08/28 03:09:07;;;;;;;4.57;2.50;;;21.00;83.00;;;;;;4983209;28;20221;-71
2023/08/28 03:11:36;;;;;;;2.90;2.63;;;21.00;83.10;;;;;;4954085;28;21328;-70
2023/08/28 03:14:03;;;;;;;3.23;2.90;;;21.00;83.10;;;;;;4982940;28;20532;-71
2023/08/28 03:16:29;;;;;;;2.73;2.43;;;21.00;83.10;;;;;;4975216;28;20929;-71
2023/08/28 03:18:55;;;;;;;2.97;2.77;;;21.00;83.10;;;;;;4966654;28;20420;-71
2023/08/28 03:21:21;;;;;;;3.13;2.30;;;20.90;83.00;;;;;;4982247;28;20447;-71
2023/08/28 03:23:47;;;;;;;2.50;2.40;;;20.90;83.10;;;;;;4982869;28;20412;-71
2023/08/28 03:26:13;;;;;;;3.20;3.00;;;20.90;83.10;;;;;;4983876;28;20448;-71
2023/08/28 03:28:40;;;;;;;4.20;3.03;;;20.90;83.20;;;;;;4982058;28;20932;-70
2023/08/28 03:31:06;;;;;;;2.70;2.50;;;20.90;83.30;;;;;;4983570;28;20544;-71
2023/08/28 03:33:33;;;;;;;2.77;2.57;;;20.90;83.30;;;;;;4982244;28;20508;-71
2023/08/28 03:35:59;;;;;;;3.27;3.07;;;20.90;83.30;;;;;;4983533;28;20991;-70
2023/08/28 03:38:28;;;;;;;3.20;2.90;;;20.90;83.40;;;;;;4982425;28;20844;-71
2023/08/28 03:40:54;;;;;;;2.90;2.70;;;20.90;83.40;;;;;;4981732;28;20503;-70
2023/08/28 03:43:22;;;;;;;3.37;3.10;;;20.90;83.50;;;;;;4981524;28;21048;-71
2023/08/28 03:45:51;;;;;;;3.97;3.57;;;20.90;83.50;;;;;;4981128;28;20492;-70
2023/08/28 03:48:17;;;;;;;2.80;2.60;;;20.90;83.60;;;;;;4981728;28;20467;-71
2023/08/28 03:50:43;;;;;;;2.97;2.50;;;20.80;83.50;;;;;;4982024;28;20544;-71
2023/08/28 03:53:08;;;;;;;2.57;2.47;;;20.80;83.50;;;;;;4981683;28;20749;-71
2023/08/28 03:55:34;;;;;;;2.80;2.60;;;20.80;83.40;;;;;;4983727;28;20440;-71
2023/08/28 03:58:04;;;;;;;3.03;2.83;;;20.80;83.50;;;;;;4982343;28;20189;-71
2023/08/28 04:00:32;;;;;;;4.33;2.90;;;20.80;83.60;;;;;;4949153;28;20427;-71
2023/08/28 04:03:01;;;;;;;3.03;2.83;;;20.80;83.60;;;;;;4949353;28;20464;-71
2023/08/28 04:05:27;;;;;;;3.67;2.83;;;20.80;83.60;;;;;;4949737;28;20470;-71
2023/08/28 04:07:55;;;;;;;3.10;2.90;;;20.80;83.60;;;;;;4981797;28;21292;-70
2023/08/28 04:10:21;;;;;;;3.37;3.07;;;20.80;83.70;;;;;;4981613;28;20984;-71
2023/08/28 04:12:47;;;;;;;3.67;3.30;;;20.80;83.60;;;;;;4974699;28;20441;-71
2023/08/28 04:15:13;;;;;;;3.30;3.03;;;20.70;83.60;;;;;;4964743;28;20878;-71
2023/08/28 04:17:39;;;;;;;4.07;3.67;;;20.70;83.60;;;;;;4962499;28;20400;-70
2023/08/28 04:20:12;;;;;;;3.07;2.87;;;20.70;83.70;;;;;;4961603;28;20860;-71
2023/08/28 04:22:41;;;;;;;3.77;3.47;;;20.70;83.70;;;;;;4970090;28;20272;-71
2023/08/28 04:25:07;;;;;;;3.40;3.10;;;20.70;83.70;;;;;;4944246;28;20456;-71
2023/08/28 04:27:34;;;;;;;3.30;3.10;;;20.70;83.80;;;;;;4984251;28;20480;-71
2023/08/28 04:30:01;;;;;;;2.97;2.77;;;20.70;83.70;;;;;;4985459;28;20417;-71
2023/08/28 04:32:27;;;;;;;3.30;3.00;;;20.70;83.80;;;;;;4985416;28;20432;-71
2023/08/28 04:34:53;;;;;;;3.90;3.60;;;20.60;83.60;;;;;;4985416;28;20502;-72
2023/08/28 04:37:19;;;;;;;3.23;3.03;;;20.60;83.70;;;;;;4969438;28;20459;-70
2023/08/28 04:39:45;;;;;;;3.20;3.00;;;20.60;83.70;;;;;;4979224;28;20483;-70
2023/08/28 04:42:12;;;;;;;4.87;3.47;;;20.60;83.70;;;;;;4975507;28;21033;-71
2023/08/28 04:44:41;;;;;;;3.10;2.90;;;20.60;83.80;;;;;;4949077;28;20486;-70
2023/08/28 04:47:09;;;;;;;4.20;3.50;;;20.60;83.80;;;;;;4978615;28;20415;-70
2023/08/28 04:49:35;;;;;;;2.90;2.70;;;20.60;83.90;;;;;;4985364;28;20431;-70
2023/08/28 04:52:03;;;;;;;3.33;3.03;;;20.60;83.80;;;;;;4962148;28;20842;-70
2023/08/28 04:54:28;;;;;;;3.23;2.93;;;20.60;84.70;;;;;;4967237;28;20408;-71
2023/08/28 04:56:57;;;;;;;3.27;3.07;;;20.60;83.90;;;;;;4967878;28;20520;-70
2023/08/28 04:59:23;;;;;;;3.40;3.20;;;20.60;83.80;;;;;;4952020;28;20188;-71
2023/08/28 05:01:50;;;;;;;3.30;3.10;;;20.60;83.90;;;;;;4984147;28;20494;-71
2023/08/28 05:04:16;;;;;;;3.80;3.50;;;20.50;83.80;;;;;;4984472;28;20417;-70
2023/08/28 05:06:42;;;;;;;3.50;3.20;;;20.50;83.80;;;;;;5059374;23;20512;-70
2023/08/28 05:09:10;;;;;;;3.33;3.10;;;20.50;83.80;;;;;;5005967;28;20452;-70
2023/08/28 05:11:36;;;;;;;3.27;3.07;;;20.50;83.90;;;;;;4990819;28;20558;-70
2023/08/28 05:14:03;;;;;;;4.93;3.17;;;20.50;83.90;;;;;;5007439;28;20426;-70
2023/08/28 05:16:31;;;;;;;3.80;3.40;;;20.50;83.90;;;;;;5007714;28;20438;-69
2023/08/28 05:18:58;;;;;;;5.53;3.23;;;20.50;83.90;;;;;;5024947;28;20409;-69
2023/08/28 05:21:25;;;;;;;4.13;3.20;;;20.50;83.80;;;;;;4989844;28;20537;-69
2023/08/28 05:23:53;;;;;;;2.60;2.40;;;20.50;83.90;;;;;;4987387;28;20418;-68
2023/08/28 05:26:20;;;;;;;3.00;2.80;;;20.40;83.80;;;;;;4986580;28;20449;-71
2023/08/28 05:28:45;;;;;;;3.70;3.40;;;20.40;83.80;;;;;;4970612;28;20194;-71
2023/08/28 05:31:14;;;;;;;3.10;2.80;;;20.40;83.80;;;;;;5004421;28;20450;-71
2023/08/28 05:33:40;;;;;;;3.17;2.87;;;20.40;83.90;;;;;;4986357;28;20461;-76
2023/08/28 05:36:11;;;;;;;2.93;2.73;;;20.40;83.90;;;;;;4984976;28;20453;-70
2023/08/28 05:38:37;;;;;;;3.20;2.90;;;20.40;83.90;;;;;;4988951;28;20440;-70
2023/08/28 05:41:09;;;;;;;3.33;3.10;;;20.40;83.90;;;;;;4986670;28;20849;-70
2023/08/28 05:43:35;;;;;;;3.10;2.90;;;20.40;84.00;;;;;;5001574;28;21227;-71
2023/08/28 05:46:03;;;;;;;3.20;2.93;;;20.30;83.90;;;;;;4993691;28;20951;-70
2023/08/28 05:48:29;;;;;;;3.40;3.10;;;20.30;83.90;;;;;;4987582;28;20407;-70
2023/08/28 05:50:55;;;;;;;3.70;2.60;;;20.30;84.00;;;;;;5015940;28;20465;-70
2023/08/28 05:53:21;;;;;;;3.20;3.00;;;20.30;84.10;;;;;;4984430;28;20474;-70
2023/08/28 05:55:50;;;;;;;3.37;3.07;;;20.30;84.20;;;;;;4991499;28;20482;-70
2023/08/28 05:58:17;;;;;;;3.33;3.13;;;20.30;84.30;;;;;;5003099;28;20436;-70
2023/08/28 06:00:44;;;;;;;4.70;2.90;;;20.30;84.40;;;;;;4987162;28;20468;-70
2023/08/28 06:03:13;;;;;;;3.07;2.87;;;20.30;84.40;;;;;;4999659;28;20456;-70
2023/08/28 06:05:39;;;;;;;3.70;3.40;;;20.30;84.50;;;;;;5006166;28;20507;-70
2023/08/28 06:08:06;;;;;;;2.93;2.73;;;20.30;84.60;;;;;;5022615;28;20456;-70
2023/08/28 06:10:38;;;;;;;3.70;3.00;;;20.30;84.60;;;;;;5006185;28;21079;-70
2023/08/28 06:13:04;;;;;;;3.13;2.80;;;20.30;84.70;;;;;;4989655;28;20903;-70
2023/08/28 06:15:31;;;;;;;3.23;3.00;;;20.30;84.70;;;;;;5005639;28;20489;-70
2023/08/28 06:18:01;;;;;;;3.20;3.00;;;20.30;84.80;;;;;;4990288;28;20548;-70
2023/08/28 06:20:38;;;;;;;3.40;2.90;;;20.30;84.80;;;;;;5007455;28;20816;-70
2023/08/28 06:23:04;;;;;;;3.00;2.80;;;20.30;84.90;;;;;;4955577;28;20447;-70
2023/08/28 06:25:30;;;;;;;3.67;3.20;;;20.30;85.00;;;;;;4983751;28;20486;-70
2023/08/28 06:27:57;;;;;;;4.03;3.63;;;20.20;85.00;;;;;;4963883;28;20470;-70
2023/08/28 06:30:23;;;;;;;2.60;2.40;;;20.20;85.10;;;;;;4986351;28;20476;-70
2023/08/28 06:32:52;;;;;;;4.07;3.63;;;20.20;85.10;;;;;;4999618;28;20923;-71
2023/08/28 06:35:19;;;;;;;3.30;3.00;;;20.20;85.20;;;;;;5003710;28;20693;-70
2023/08/28 06:37:50;;;;;;;2.97;2.77;;;20.20;85.20;;;;;;5019217;28;20826;-71
2023/08/28 06:40:18;;;;;;;2.87;2.67;;;20.20;85.30;;;;;;5002020;28;20842;-72
2023/08/28 06:42:45;;;;;;;3.40;3.13;;;20.30;85.30;;;;;;4980279;28;20552;-69
2023/08/28 06:45:14;;;;;;;4.30;2.97;;;20.20;85.30;;;;;;4969154;28;20457;-69
2023/08/28 06:47:42;;;;;;;2.70;2.50;;;20.20;85.30;;;;;;5004407;28;20462;-69
2023/08/28 06:50:10;;;;;;;2.53;2.43;;;20.20;85.30;;;;;;4985628;28;20438;-69
2023/08/28 06:52:39;;;;;;;4.10;3.60;;;20.20;85.30;;;;;;5003362;28;20431;-69
2023/08/28 06:55:10;;;;;;;3.20;2.90;;;20.20;85.40;;;;;;4985472;28;20449;-69
2023/08/28 06:57:36;;;;;;;3.03;2.83;;;20.20;85.40;;;;;;5003224;28;20400;-69
2023/08/28 07:00:03;;;;;;;3.10;2.73;;;20.20;85.30;;;;;;4985953;28;20451;-69
2023/08/28 07:02:31;;;;;;;3.23;2.90;;;20.20;85.40;;;;;;4969449;28;21078;-69
2023/08/28 07:04:57;;;;;;;3.17;2.90;;;20.20;85.40;;;;;;4968817;28;20448;-69
2023/08/28 07:07:23;;;;;;;3.90;2.70;;;20.20;85.40;;;;;;4985094;28;20465;-68
2023/08/28 07:09:52;;;;;;;3.37;3.17;;;20.20;85.40;;;;;;4984833;28;21297;-69
2023/08/28 07:12:18;;;;;;;3.33;3.00;;;20.20;85.50;;;;;;5003086;28;20525;-69
2023/08/28 07:14:44;;;;;;;3.37;3.07;;;20.20;85.60;;;;;;4999402;28;20465;-69
2023/08/28 07:17:10;;;;;;;3.63;2.83;;;20.20;85.60;;;;;;5001279;28;20446;-69
2023/08/28 07:19:38;;;;;;;3.40;3.20;;;20.20;85.70;;;;;;5001636;28;20853;-69
2023/08/28 07:22:04;;;;;;;3.70;3.40;;;20.20;85.70;;;;;;4994358;28;20473;-69
2023/08/28 07:24:30;;;;;;;4.00;3.60;;;20.20;85.70;;;;;;4983267;28;20444;-69
2023/08/28 07:26:59;;;;;;;5.10;3.10;;;20.20;86.50;;;;;;4985893;28;20509;-69
2023/08/28 07:29:25;;;;;;;3.23;2.90;;;20.20;85.80;;;;;;4976176;28;20436;-69
2023/08/28 07:31:51;;;;;;;3.40;3.13;;;20.20;85.90;;;;;;5001747;28;20476;-69
2023/08/28 07:34:20;;;;;;;4.70;3.80;;;20.20;86.00;;;;;;5003257;28;20394;-69
2023/08/28 07:36:48;;;;;;;4.30;3.70;;;20.20;86.00;;;;;;4985197;28;20449;-69
2023/08/28 07:39:16;;;;;;;5.57;3.27;;;20.20;86.10;;;;;;4985380;28;20533;-69
2023/08/28 07:41:42;;;;;;;3.80;3.50;;;20.20;86.20;;;;;;5002094;28;20450;-67
2023/08/28 07:44:08;;;;;;;3.23;3.00;;;20.20;86.20;;;;;;4968818;28;20940;-68
2023/08/28 07:46:37;;;;;;;3.60;3.30;;;20.10;86.10;;;;;;5003424;28;20439;-67
2023/08/28 07:49:03;;;;;;;3.87;3.57;;;20.10;86.20;;;;;;5002788;28;20501;-67
2023/08/28 07:51:29;;;;;;;3.70;3.00;;;20.20;86.40;;;;;;5000218;28;20504;-67
2023/08/28 07:53:57;;;;;;;3.70;3.40;;;20.10;86.30;;;;;;4985352;28;20497;-68
2023/08/28 07:56:23;;;;;;;3.27;2.97;;;20.20;86.50;;;;;;4985326;28;20558;-68
2023/08/28 07:58:50;;;;;;;4.13;3.73;;;20.10;86.30;;;;;;4984237;28;20461;-68
2023/08/28 08:01:16;;;;;;;3.53;3.23;;;20.20;86.50;;;;;;4968230;28;20580;-68
2023/08/28 08:03:44;;;;;;;3.87;3.10;;;20.20;86.50;;;;;;4972866;28;20434;-67
2023/08/28 08:06:13;;;;;;;3.90;3.33;;;20.10;86.50;;;;;;5007237;28;21290;-67
2023/08/28 08:08:45;;;;;;;3.30;3.00;;;20.20;86.60;;;;;;5007202;28;20422;-68
2023/08/28 08:11:14;;;;;;;3.30;3.10;;;20.20;86.70;;;;;;4989405;28;20471;-68
2023/08/28 08:13:39;;;;;;;3.10;2.90;;;20.20;86.70;;;;;;4989971;28;20417;-68
2023/08/28 08:16:06;;;;;;;5.30;3.00;;;20.20;86.60;;;;;;4989423;28;20545;-68
2023/08/28 08:18:32;;;;;;;4.20;3.53;;;20.20;86.70;;;;;;4989336;28;20545;-68
2023/08/28 08:20:58;;;;;;;3.40;3.10;;;20.20;86.80;;;;;;5007502;28;20421;-67
2023/08/28 08:23:26;;;;;;;3.80;3.50;;;20.20;86.90;;;;;;5005418;28;20479;-67
2023/08/28 08:25:55;;;;;;;3.10;2.80;;;20.20;86.90;;;;;;5006443;28;20443;-68
2023/08/28 08:28:23;;;;;;;3.07;2.70;;;20.20;86.90;;;;;;4973094;28;20449;-68
2023/08/28 08:30:56;;;;;;;3.20;3.00;;;20.20;86.90;;;;;;5006199;28;20454;-67
2023/08/28 08:33:29;;;;;;;4.50;3.70;;;20.20;87.10;;;;;;4994069;28;20613;-68
2023/08/28 08:35:55;;;;;;;3.40;3.20;;;20.20;87.10;;;;;;5008235;28;20441;-68
2023/08/28 08:38:21;;;;;;;3.70;3.40;;;20.20;87.10;;;;;;5005551;28;20522;-67
2023/08/28 08:40:51;;;;;;;4.27;3.03;;;20.20;87.30;;;;;;4987194;28;20477;-68
2023/08/28 08:43:17;;;;;;;4.00;3.70;;;20.20;87.30;;;;;;4987425;28;20413;-68
2023/08/28 08:45:47;;;;;;;3.87;3.57;;;20.20;87.30;;;;;;5005855;28;20999;-67
2023/08/28 08:48:18;;;;;;;3.23;3.00;;;20.30;87.50;;;;;;4988154;28;20755;-68
2023/08/28 08:50:47;;;;;;;3.20;2.97;;;20.30;87.50;;;;;;5005741;28;21028;-67
2023/08/28 08:53:31;;;;;;;3.17;2.87;;;20.30;87.70;;;;;;4987516;28;20432;-68
2023/08/28 08:56:03;;;;;;;3.17;2.87;;;20.30;87.60;;;;;;4987431;28;20443;-68
2023/08/28 08:58:33;;;;;;;2.90;2.70;;;20.30;87.60;;;;;;4987313;28;20407;-68
2023/08/28 09:01:00;;;;;;;3.27;2.97;;;20.30;87.60;;;;;;4987062;28;20415;-68
2023/08/28 09:03:32;;;;;;;2.93;2.73;;;20.30;87.60;;;;;;4970535;28;21060;-67
2023/08/28 09:05:59;;;;;;;3.47;3.27;;;20.30;87.60;;;;;;5004783;28;20439;-67
2023/08/28 09:08:32;;;;;;;2.77;2.57;;;20.30;87.60;;;;;;5005220;28;21030;-67
2023/08/28 09:11:01;;;;;;;3.07;2.87;;;20.40;87.80;;;;;;4970924;28;20454;-68
2023/08/28 09:13:30;;;;;;;3.07;2.87;;;20.40;87.80;;;;;;5004260;28;20412;-68
2023/08/28 09:15:56;;;;;;;3.67;3.43;;;20.40;87.70;;;;;;4987131;28;20450;-67
2023/08/28 09:18:25;;;;;;;2.73;2.53;;;20.40;87.70;;;;;;4987054;28;20404;-68
2023/08/28 09:21:12;;;;;;;2.97;2.67;;;20.40;88.60;;;;;;4987449;28;20432;-69
2023/08/28 09:23:48;;;;;;;2.70;2.50;;;20.50;87.80;;;;;;5004177;28;21121;-69
2023/08/28 09:26:19;;;;;;;2.97;2.67;;;20.50;87.70;;;;;;5003102;28;20522;-72
2023/08/28 09:29:03;;;;;;;2.90;2.70;;;20.50;87.80;;;;;;5003285;28;20494;-68
2023/08/28 09:31:31;;;;;;;3.17;2.97;;;20.50;87.80;;;;;;5019502;28;20580;-71
2023/08/28 09:34:00;;;;;;;2.60;2.40;;;20.50;87.80;;;;;;4986712;28;20954;-70
2023/08/28 09:36:36;;;;;;;3.77;3.00;;;20.50;87.80;;;;;;5003059;28;21180;-72
2023/08/28 09:39:06;;;;;;;2.83;2.63;;;20.60;88.00;;;;;;5003211;28;20523;-69
2023/08/28 09:41:47;;;;;;;2.73;2.53;;;20.60;88.10;;;;;;5019097;28;20953;-70
2023/08/28 09:44:15;;;;;;;3.30;3.10;;;20.60;88.10;;;;;;5003803;28;20457;-69
2023/08/28 09:46:46;;;;;;;3.50;2.50;;;20.60;88.00;;;;;;5002654;28;21006;-68
2023/08/28 09:49:14;;;;;;;2.90;2.60;;;20.60;87.90;;;;;;5002846;28;20431;-68
2023/08/28 09:51:48;;;;;;;3.50;2.90;;;20.70;87.90;;;;;;5003642;28;20480;-68
2023/08/28 09:54:15;;;;;;;2.50;2.40;;;20.70;87.80;;;;;;5002138;28;20843;-68
2023/08/28 09:56:46;;;;;;;2.40;2.30;;;20.70;87.80;;;;;;4986386;28;20469;-68
2023/08/28 09:59:14;;;;;;;3.07;2.87;;;20.70;87.80;;;;;;5002608;28;20451;-69
2023/08/28 10:01:40;;;;;;;2.73;2.50;;;20.80;87.90;;;;;;5003557;28;20411;-68
2023/08/28 10:04:09;;;;;;;2.77;2.57;;;20.80;87.80;;;;;;5004243;28;20590;-69
2023/08/28 10:06:49;;;;;;;2.97;2.77;;;20.80;87.80;;;;;;4986758;28;20475;-69
2023/08/28 10:09:24;;;;;;;2.60;2.40;;;20.80;87.70;;;;;;4970213;28;20449;-69
2023/08/28 10:11:52;;;;;;;2.80;2.50;;;20.80;87.60;;;;;;5002206;28;20451;-69
2023/08/28 10:14:21;;;;;;;2.67;2.47;;;20.90;87.60;;;;;;4985054;28;20546;-69
2023/08/28 10:17:00;;;;;;;2.53;2.43;;;20.90;87.60;;;;;;5002860;28;20435;-69
2023/08/28 10:19:49;;;;;;;2.13;2.03;;;20.90;87.50;;;;;;5003712;28;20408;-69
2023/08/28 10:22:15;;;;;;;2.60;2.40;;;20.90;87.50;;;;;;4985509;28;20561;-69
2023/08/28 10:24:45;;;;;;;2.73;2.53;;;20.90;87.30;;;;;;4985124;28;20451;-69
2023/08/28 10:27:14;;;;;;;2.67;2.47;;;20.90;87.40;;;;;;5003779;28;20434;-70
2023/08/28 10:29:41;;;;;;;2.73;2.30;;;21.00;87.50;;;;;;4969662;28;20451;-68
2023/08/28 10:32:11;;;;;;;2.60;2.27;;;21.00;87.40;;;;;;4969539;28;20499;-68
2023/08/28 10:34:42;;;;;;;2.77;2.57;;;21.00;87.40;;;;;;4968652;28;21217;-68
2023/08/28 10:37:11;;;;;;;2.93;2.40;;;21.00;87.30;;;;;;4985240;28;21096;-68
2023/08/28 10:39:41;;;;;;;2.20;2.10;;;21.00;87.30;;;;;;5003024;28;20490;-69
2023/08/28 10:42:12;;;;;;;2.80;2.60;;;21.00;87.30;;;;;;4985536;28;20501;-68
2023/08/28 10:44:44;;;;;;;3.63;2.70;;;21.10;87.40;;;;;;4984847;28;21293;-70
2023/08/28 10:47:15;;;;;;;2.97;2.77;;;21.10;87.30;;;;;;4984885;28;20426;-68
2023/08/28 10:49:41;;;;;;;2.90;2.70;;;21.10;87.30;;;;;;4985605;28;20531;-69
2023/08/28 10:52:07;;;;;;;3.40;3.10;;;21.10;87.30;;;;;;5002437;28;20536;-67
2023/08/28 10:54:40;;;;;;;2.70;2.50;;;21.10;87.20;;;;;;5002775;28;21332;-69
2023/08/28 10:57:24;;;;;;;2.93;2.77;;;21.20;87.30;;;;;;5001991;28;20956;-68
2023/08/28 10:59:50;;;;;;;2.90;2.70;;;21.20;87.20;;;;;;4985257;28;20411;-69
2023/08/28 11:02:17;;;;;;;2.67;2.47;;;21.20;87.10;;;;;;4985113;28;20462;-68
2023/08/28 11:04:43;;;;;;;2.60;2.30;;;21.20;87.10;;;;;;5002250;28;21503;-69
2023/08/28 11:07:22;;;;;;;3.10;2.90;;;21.20;87.00;;;;;;4968308;28;21066;-69
2023/08/28 11:09:51;;;;;;;2.83;2.63;;;21.20;87.00;;;;;;4984214;28;20983;-68
2023/08/28 11:12:20;;;;;;;2.60;2.40;;;21.20;86.90;;;;;;4983649;28;20505;-69
2023/08/28 11:14:52;;;;;;;2.87;2.67;;;21.20;86.90;;;;;;5000937;28;20497;-69
2023/08/28 11:17:20;;;;;;;2.77;2.57;;;21.30;86.90;;;;;;5001766;28;20436;-69
2023/08/28 11:19:54;;;;;;;2.70;2.50;;;21.30;86.90;;;;;;5000785;28;20506;-69
2023/08/28 11:22:35;;;;;;;2.43;2.23;;;21.30;86.90;;;;;;5001436;28;20432;-69
2023/08/28 11:25:04;;;;;;;3.33;3.13;;;21.30;86.80;;;;;;4980686;28;20601;-69
2023/08/28 11:27:40;;;;;;;2.67;2.47;;;21.30;86.70;;;;;;4963722;28;20512;-69
2023/08/28 11:30:09;;;;;;;2.53;2.33;;;21.30;86.70;;;;;;4979375;28;20583;-69
2023/08/28 11:32:37;;;;;;;3.63;3.43;;;21.40;86.80;;;;;;4965243;28;20452;-69
2023/08/28 11:35:09;;;;;;;2.77;2.57;;;21.40;86.70;;;;;;4964483;28;20985;-69
2023/08/28 11:37:37;;;;;;;3.00;2.80;;;21.40;86.70;;;;;;4988636;28;20505;-69
2023/08/28 11:40:08;;;;;;;3.20;3.00;;;21.40;86.70;;;;;;5003698;28;20440;-70
2023/08/28 11:42:39;;;;;;;2.80;2.70;;;21.40;86.60;;;;;;4990477;28;20439;-70
2023/08/28 11:45:06;;;;;;;2.80;2.53;;;21.50;86.70;;;;;;4984855;28;20502;-69
2023/08/28 11:47:39;;;;;;;3.10;2.77;;;21.50;86.70;;;;;;5007857;28;20455;-69
2023/08/28 11:50:06;;;;;;;2.80;2.60;;;21.50;86.60;;;;;;4991181;28;20531;-69
2023/08/28 11:52:37;;;;;;;3.40;3.20;;;21.50;86.50;;;;;;5000180;28;20462;-69
2023/08/28 11:55:04;;;;;;;2.80;2.60;;;21.60;86.80;;;;;;4982808;28;20457;-69
2023/08/28 11:57:34;;;;;;;2.77;2.57;;;21.60;86.80;;;;;;4967324;28;20463;-69
2023/08/28 12:00:04;;;;;;;3.20;3.00;;;21.60;86.60;;;;;;4951721;28;20543;-69
2023/08/28 12:02:43;;;;;;;3.17;2.97;;;21.60;86.50;;;;;;4980378;28;20524;-70
2023/08/28 12:05:15;;;;;;;3.00;2.80;;;21.70;87.30;;;;;;4948230;28;20544;-69
2023/08/28 12:07:45;;;;;;;3.57;3.30;;;21.70;86.40;;;;;;4943112;28;20448;-69
2023/08/28 12:10:16;;;;;;;3.70;3.40;;;21.70;87.20;;;;;;4951392;28;20522;-69
2023/08/28 12:12:54;;;;;;;3.37;2.93;;;21.70;86.40;;;;;;5001164;28;20973;-69
2023/08/28 12:15:32;;;;;;;3.57;3.23;;;21.80;86.20;;;;;;5000940;28;20447;-71
2023/08/28 12:18:06;;;;;;;3.80;3.60;;;21.80;86.10;;;;;;4983642;28;20438;-69
2023/08/28 12:20:33;;;;;;;4.03;3.63;;;21.80;86.00;;;;;;4997516;28;21383;-69
2023/08/28 12:23:03;;;;;;;4.20;3.80;;;21.80;86.00;;;;;;4974375;28;20463;-69
2023/08/28 12:25:34;;;;;;;4.23;3.93;;;21.80;86.00;;;;;;4980066;28;20494;-69
2023/08/28 12:28:08;;;;;;;3.87;3.60;;;21.90;86.00;;;;;;4996841;28;20447;-69
2023/08/28 12:30:40;;;;;;;5.27;3.90;;;21.90;85.90;;;;;;5013788;28;20561;-69
2023/08/28 12:33:07;;;;;;;4.10;3.80;;;21.90;85.80;;;;;;4966210;28;20455;-70
2023/08/28 12:35:42;;;;;;;3.83;3.53;;;21.90;85.80;;;;;;4971764;28;20496;-69
2023/08/28 12:38:12;;;;;;;3.90;3.60;;;21.90;85.70;;;;;;4964455;28;21035;-68
2023/08/28 12:40:42;;;;;;;3.90;3.60;;;21.90;85.70;;;;;;4988229;28;20428;-69
2023/08/28 12:43:11;;;;;;;4.37;4.13;;;22.00;85.90;;;;;;4984050;28;21116;-69
2023/08/28 12:45:37;;;;;;;3.60;3.40;;;22.00;85.90;;;;;;4983804;28;20463;-69
2023/08/28 12:48:06;;;;;;;4.30;4.00;;;22.00;85.90;;;;;;4984913;28;20407;-69
2023/08/28 12:50:35;;;;;;;4.23;3.83;;;22.00;85.80;;;;;;4989336;28;20476;-69
2023/08/28 12:53:01;;;;;;;4.57;4.17;;;22.00;85.70;;;;;;4967839;28;20421;-69
2023/08/28 12:55:27;;;;;;;4.10;3.80;;;22.00;85.80;;;;;;4997768;28;20455;-68